Time;durP1;ratioP1;P1;durP2;ratioP2;P2;SDS_P1;SDS_P2;PMS_P1;PMS_P2;Temp;Humidity;BMP_temperature;BMP_pressure;BME280_temperature;BME280_humidity;BME280_pressure;Samples;Min_cycle;Max_cycle;Signal;HPM_P1;HPM_P2
2022/12/05 00:01:52;;;;;;;51.13;27.23;;;1.10;99.90;;;;;;5057114;28;20467;-83
2022/12/05 00:04:17;;;;;;;53.47;27.90;;;1.10;99.90;;;;;;5057058;28;20025;-84
2022/12/05 00:06:43;;;;;;;46.55;25.35;;;1.10;99.90;;;;;;5059714;28;20465;-82
2022/12/05 00:09:10;;;;;;;56.25;26.55;;;1.10;99.90;;;;;;5050958;28;20084;-81
2022/12/05 00:11:38;;;;;;;54.42;25.38;;;1.10;99.90;;;;;;5056683;28;20431;-83
2022/12/05 00:14:05;;;;;;;50.00;26.85;;;1.10;99.90;;;;;;5058519;28;20435;-82
2022/12/05 00:16:32;;;;;;;51.35;26.42;;;1.10;99.90;;;;;;5057321;28;20354;-83
2022/12/05 00:19:01;;;;;;;54.42;26.52;;;1.10;99.90;;;;;;5055894;28;20127;-84
2022/12/05 00:21:30;;;;;;;54.75;26.73;;;1.10;99.90;;;;;;5063957;28;20043;-83
2022/12/05 00:23:58;;;;;;;48.58;26.67;;;1.10;99.90;;;;;;5048226;28;20132;-83
2022/12/05 00:26:24;;;;;;;51.88;28.85;;;1.10;99.90;;;;;;5056516;28;20534;-83
2022/12/05 00:28:50;;;;;;;58.20;27.00;;;1.10;99.90;;;;;;5049271;28;20041;-82
2022/12/05 00:31:18;;;;;;;48.42;26.55;;;1.20;99.90;;;;;;5055520;28;20025;-83
2022/12/05 00:33:45;;;;;;;54.55;27.92;;;1.10;99.90;;;;;;5054078;28;20654;-83
2022/12/05 00:36:14;;;;;;;63.47;25.88;;;1.10;99.90;;;;;;5055356;28;20025;-83
2022/12/05 00:38:41;;;;;;;50.60;26.77;;;1.10;99.90;;;;;;5055630;28;20090;-83
2022/12/05 00:41:13;;;;;;;53.97;26.52;;;1.10;99.90;;;;;;5060356;28;20016;-84
2022/12/05 00:43:39;;;;;;;50.42;28.08;;;1.10;99.90;;;;;;5056337;28;20025;-83
2022/12/05 00:46:08;;;;;;;49.92;25.75;;;1.10;99.90;;;;;;5058034;28;20063;-83
2022/12/05 00:48:34;;;;;;;49.95;25.88;;;1.10;99.90;;;;;;5060937;28;20040;-84
2022/12/05 00:51:01;;;;;;;52.92;25.70;;;1.10;99.90;;;;;;5060830;28;20042;-83
2022/12/05 00:53:27;;;;;;;46.42;26.15;;;1.10;99.90;;;;;;5059149;28;20013;-84
2022/12/05 00:55:54;;;;;;;43.78;25.35;;;1.20;99.90;;;;;;5056306;28;20028;-82
2022/12/05 00:58:20;;;;;;;81.03;24.80;;;1.20;99.90;;;;;;5060272;28;20025;-84
2022/12/05 01:00:45;;;;;;;45.47;22.30;;;1.20;99.90;;;;;;5065279;28;20027;-84
2022/12/05 01:03:11;;;;;;;40.40;22.98;;;1.20;99.90;;;;;;5062385;28;20173;-83
2022/12/05 01:05:36;;;;;;;42.50;23.27;;;1.10;99.90;;;;;;5064261;28;20021;-83
2022/12/05 01:08:02;;;;;;;41.72;21.85;;;1.20;99.90;;;;;;5059263;28;20040;-84
2022/12/05 01:10:28;;;;;;;42.55;23.73;;;1.20;99.90;;;;;;5061255;28;20020;-83
2022/12/05 01:12:53;;;;;;;50.72;25.30;;;1.10;99.90;;;;;;5062218;28;20219;-84
2022/12/05 01:15:19;;;;;;;42.53;22.98;;;1.20;99.90;;;;;;5064811;28;20039;-83
2022/12/05 01:17:45;;;;;;;41.05;23.05;;;1.20;99.90;;;;;;5065402;28;20036;-83
2022/12/05 01:20:10;;;;;;;41.00;23.60;;;1.20;99.90;;;;;;5062133;28;20174;-84
2022/12/05 01:22:36;;;;;;;45.03;24.70;;;1.20;99.90;;;;;;5059553;28;20199;-84
2022/12/05 01:25:04;;;;;;;53.25;25.65;;;1.20;99.90;;;;;;5061232;28;20028;-84
2022/12/05 01:27:29;;;;;;;47.38;24.45;;;1.20;99.90;;;;;;5058082;28;21683;-83
2022/12/05 01:29:56;;;;;;;46.05;23.67;;;1.20;99.90;;;;;;5061036;28;20021;-84
2022/12/05 01:32:21;;;;;;;42.45;24.10;;;1.20;99.90;;;;;;5062552;28;20040;-84
2022/12/05 01:34:47;;;;;;;43.30;23.42;;;1.20;99.90;;;;;;5060921;28;20024;-84
2022/12/05 01:37:13;;;;;;;41.50;22.40;;;1.20;99.90;;;;;;5061709;28;20032;-83
2022/12/05 01:39:38;;;;;;;46.20;21.92;;;1.20;99.90;;;;;;5066058;28;20055;-84
2022/12/05 01:42:04;;;;;;;39.03;22.25;;;1.20;99.90;;;;;;5063297;28;20523;-84
2022/12/05 01:44:30;;;;;;;45.72;22.83;;;1.20;99.90;;;;;;5062677;28;20373;-84
2022/12/05 01:46:56;;;;;;;43.58;24.15;;;1.20;99.90;;;;;;5062125;28;20052;-84
2022/12/05 01:49:36;;;;;;;38.20;21.23;;;1.20;99.90;;;;;;5064698;28;20529;-84
2022/12/05 01:52:09;;;;;;;38.38;21.90;;;1.20;99.90;;;;;;5066617;28;20070;-84
2022/12/05 01:54:36;;;;;;;43.78;23.05;;;1.20;99.90;;;;;;5056328;28;20021;-84
2022/12/05 01:57:05;;;;;;;42.03;22.00;;;1.20;99.90;;;;;;5067448;28;20021;-84
2022/12/05 01:59:34;;;;;;;35.67;21.02;;;1.20;99.90;;;;;;5061529;28;20044;-84
2022/12/05 02:02:00;;;;;;;38.65;20.90;;;1.20;99.90;;;;;;5065156;28;20052;-84
2022/12/05 02:04:26;;;;;;;37.05;20.42;;;1.10;99.90;;;;;;5056599;28;20472;-84
2022/12/05 02:06:52;;;;;;;40.85;21.48;;;1.10;99.90;;;;;;5061773;28;20041;-84
2022/12/05 02:09:19;;;;;;;44.67;22.08;;;1.20;99.90;;;;;;5060363;28;20021;-84
2022/12/05 02:11:57;;;;;;;42.42;21.98;;;1.20;99.90;;;;;;5060921;28;20094;-83
2022/12/05 02:14:42;;;;;;;38.35;21.63;;;1.10;99.90;;;;;;5056506;28;20362;-84
2022/12/05 02:17:14;;;;;;;42.65;20.83;;;1.10;99.90;;;;;;5059425;28;20091;-83
2022/12/05 02:20:11;;;;;;;38.10;20.00;;;1.20;99.90;;;;;;5053063;28;20033;-83
2022/12/05 02:22:55;;;;;;;36.55;21.17;;;1.10;99.90;;;;;;5056319;28;20955;-84
2022/12/05 02:25:33;;;;;;;46.33;20.88;;;1.10;99.90;;;;;;5060847;28;20469;-84
2022/12/05 02:28:07;;;;;;;40.97;21.42;;;1.10;99.90;;;;;;5062693;28;20052;-84
2022/12/05 02:30:46;;;;;;;34.08;20.10;;;1.20;99.90;;;;;;5057317;28;20036;-82
2022/12/05 02:33:21;;;;;;;39.63;20.92;;;1.20;99.90;;;;;;5057291;28;20423;-84
2022/12/05 02:36:08;;;;;;;39.92;20.23;;;1.20;99.90;;;;;;5062283;28;20154;-84
2022/12/05 02:38:52;;;;;;;36.75;19.77;;;1.20;99.90;;;;;;5064248;28;20021;-84
2022/12/05 02:41:30;;;;;;;40.47;20.98;;;1.20;99.90;;;;;;5056186;28;20059;-85
2022/12/05 02:44:42;;;;;;;36.78;20.30;;;1.20;99.90;;;;;;5062584;28;20431;-84
2022/12/05 02:47:11;;;;;;;35.50;20.77;;;1.20;99.90;;;;;;5042277;28;20067;-83
2022/12/05 02:49:39;;;;;;;34.50;20.45;;;1.20;99.90;;;;;;5058715;28;20107;-84
2022/12/05 02:52:09;;;;;;;41.47;21.30;;;1.20;99.90;;;;;;5060375;28;20100;-84
2022/12/05 02:54:39;;;;;;;43.92;20.52;;;1.20;99.90;;;;;;5061108;28;20024;-84
2022/12/05 02:57:08;;;;;;;33.53;20.35;;;1.20;99.90;;;;;;5060618;28;20114;-84
2022/12/05 02:59:33;;;;;;;36.53;20.50;;;1.20;99.90;;;;;;5062837;28;20119;-83
2022/12/05 03:01:59;;;;;;;36.67;19.35;;;1.20;99.90;;;;;;5063615;28;20131;-84
2022/12/05 03:04:26;;;;;;;32.65;19.17;;;1.10;99.90;;;;;;5063109;28;20078;-83
2022/12/05 03:07:09;;;;;;;33.67;18.83;;;1.20;99.90;;;;;;5060576;28;20079;-84
2022/12/05 03:09:55;;;;;;;26.15;16.30;;;1.20;99.90;;;;;;5060051;28;20044;-83
2022/12/05 03:12:31;;;;;;;31.38;18.35;;;1.20;99.90;;;;;;5061601;28;20082;-83
2022/12/05 03:15:15;;;;;;;33.42;17.90;;;1.20;99.90;;;;;;5054359;28;20361;-83
2022/12/05 03:17:58;;;;;;;28.67;16.90;;;1.20;99.90;;;;;;5052194;28;20017;-83
2022/12/05 03:20:30;;;;;;;34.08;17.15;;;1.20;99.90;;;;;;5054016;28;20019;-82
2022/12/05 03:22:56;;;;;;;33.20;16.83;;;1.20;99.90;;;;;;5060443;28;20038;-84
2022/12/05 03:25:30;;;;;;;32.85;16.92;;;1.20;99.90;;;;;;5059086;28;20108;-83
2022/12/05 03:28:26;;;;;;;31.30;16.88;;;1.20;99.90;;;;;;5054936;28;20050;-83
2022/12/05 03:30:55;;;;;;;29.02;15.82;;;1.20;99.90;;;;;;5040893;28;20032;-83
2022/12/05 03:33:28;;;;;;;29.05;15.73;;;1.20;99.90;;;;;;5046043;28;20032;-83
2022/12/05 03:35:54;;;;;;;30.33;15.68;;;1.20;99.90;;;;;;5061083;28;20384;-82
2022/12/05 03:38:29;;;;;;;25.98;13.75;;;1.20;99.90;;;;;;5062395;28;20024;-84
2022/12/05 03:41:16;;;;;;;25.13;15.10;;;1.20;99.90;;;;;;5055808;28;20427;-83
2022/12/05 03:44:02;;;;;;;23.23;13.30;;;1.20;99.90;;;;;;5054723;28;20031;-84
2022/12/05 03:46:36;;;;;;;26.00;15.05;;;1.20;99.90;;;;;;5047783;28;20531;-82
2022/12/05 03:49:21;;;;;;;23.05;14.23;;;1.20;99.90;;;;;;5059021;28;20035;-83
2022/12/05 03:51:58;;;;;;;20.20;12.95;;;1.20;99.90;;;;;;5061725;28;20024;-83
2022/12/05 03:54:26;;;;;;;22.67;13.68;;;1.20;99.90;;;;;;5052790;28;20032;-82
2022/12/05 03:57:11;;;;;;;26.77;15.32;;;1.10;99.90;;;;;;5056615;28;20025;-84
2022/12/05 03:59:44;;;;;;;22.65;14.43;;;1.10;99.90;;;;;;5061885;28;20036;-84
2022/12/05 04:02:17;;;;;;;25.02;13.32;;;1.20;99.90;;;;;;5053540;28;20031;-82
2022/12/05 04:05:00;;;;;;;22.92;13.25;;;1.10;99.90;;;;;;5058513;28;20020;-83
2022/12/05 04:07:30;;;;;;;19.27;11.82;;;1.20;99.90;;;;;;5055713;28;20082;-83
2022/12/05 04:10:00;;;;;;;20.83;12.35;;;1.20;99.90;;;;;;5052974;28;20112;-84
2022/12/05 04:12:28;;;;;;;18.02;11.50;;;1.20;99.90;;;;;;5061632;28;20111;-83
2022/12/05 04:15:02;;;;;;;19.80;12.02;;;1.20;99.90;;;;;;5052078;28;20021;-82
2022/12/05 04:17:39;;;;;;;22.10;12.50;;;1.30;99.90;;;;;;5063237;28;20400;-83
2022/12/05 04:23:21;;;;;;;19.80;11.45;;;1.20;99.90;;;;;;5017042;28;20026;-83
2022/12/05 04:25:54;;;;;;;18.73;11.38;;;1.20;99.90;;;;;;5011675;28;20022;-84
2022/12/05 04:28:35;;;;;;;21.17;11.43;;;1.20;99.90;;;;;;5040230;28;20071;-84
2022/12/05 04:31:15;;;;;;;20.90;12.73;;;1.10;99.90;;;;;;5062857;28;20046;-83
2022/12/05 04:33:49;;;;;;;22.27;12.40;;;1.20;99.90;;;;;;5058406;28;20020;-83
2022/12/05 04:36:21;;;;;;;24.58;12.32;;;1.20;99.90;;;;;;5059717;28;20127;-83
2022/12/05 04:39:11;;;;;;;20.48;13.13;;;1.20;99.90;;;;;;5058896;28;20115;-83
2022/12/05 04:41:52;;;;;;;21.30;12.43;;;1.20;99.90;;;;;;5061906;28;20031;-83
2022/12/05 04:44:24;;;;;;;19.30;11.68;;;1.20;99.90;;;;;;5059232;28;20311;-83
2022/12/05 04:46:53;;;;;;;19.88;12.02;;;1.20;99.90;;;;;;5064685;28;20477;-83
2022/12/05 04:49:26;;;;;;;23.40;13.75;;;1.20;99.90;;;;;;5055822;28;20024;-82
2022/12/05 04:51:55;;;;;;;21.60;12.52;;;1.30;99.90;;;;;;5062694;28;21749;-83
2022/12/05 04:54:30;;;;;;;18.25;12.02;;;1.30;99.90;;;;;;5060699;28;20499;-83
2022/12/05 04:57:06;;;;;;;21.88;12.90;;;1.20;99.90;;;;;;5064147;28;20025;-83
2022/12/05 04:59:32;;;;;;;21.30;13.48;;;1.30;99.90;;;;;;5064722;28;20040;-83
2022/12/05 05:02:05;;;;;;;23.40;11.73;;;1.20;99.90;;;;;;5064459;28;20025;-82
2022/12/05 05:04:36;;;;;;;21.33;12.85;;;1.20;99.90;;;;;;5059081;28;20032;-83
2022/12/05 05:07:10;;;;;;;25.42;13.13;;;1.20;99.90;;;;;;5060298;28;20116;-83
2022/12/05 05:09:36;;;;;;;26.58;12.98;;;1.30;99.90;;;;;;5058574;28;20036;-83
2022/12/05 05:12:03;;;;;;;20.13;11.68;;;1.20;99.90;;;;;;5059970;28;20027;-83
2022/12/05 05:14:29;;;;;;;19.02;12.05;;;1.20;99.90;;;;;;5062726;28;20033;-82
2022/12/05 05:16:55;;;;;;;19.95;11.30;;;1.30;99.90;;;;;;5060403;28;20032;-83
2022/12/05 05:19:21;;;;;;;18.95;12.68;;;1.20;99.90;;;;;;5066013;28;20044;-83
2022/12/05 05:21:47;;;;;;;19.48;12.25;;;1.20;99.90;;;;;;5063403;28;20173;-83
2022/12/05 05:24:14;;;;;;;20.00;11.95;;;1.20;99.90;;;;;;5059487;28;20037;-83
2022/12/05 05:26:42;;;;;;;19.80;10.20;;;1.30;99.90;;;;;;5059307;28;20037;-84
2022/12/05 05:29:09;;;;;;;18.15;11.20;;;1.20;99.90;;;;;;5054680;28;20032;-83
2022/12/05 05:31:35;;;;;;;17.55;11.90;;;1.20;99.90;;;;;;5065275;28;20029;-83
2022/12/05 05:34:01;;;;;;;15.93;11.02;;;1.20;99.90;;;;;;5055840;28;20021;-83
2022/12/05 05:36:27;;;;;;;16.83;11.23;;;1.20;99.90;;;;;;5059603;28;20029;-83
2022/12/05 05:38:58;;;;;;;18.33;10.32;;;1.20;99.90;;;;;;5066518;28;20368;-82
2022/12/05 05:41:30;;;;;;;18.92;11.40;;;1.30;99.90;;;;;;5062457;28;20025;-80
2022/12/05 05:43:55;;;;;;;17.85;10.93;;;1.30;99.90;;;;;;5062067;28;20056;-81
2022/12/05 05:46:25;;;;;;;17.88;11.13;;;1.20;99.90;;;;;;5057539;28;20097;-81
2022/12/05 05:48:50;;;;;;;15.75;9.65;;;1.20;99.90;;;;;;5064109;28;20056;-81
2022/12/05 05:51:17;;;;;;;16.52;9.98;;;1.20;99.90;;;;;;5064087;28;20472;-84
2022/12/05 05:53:43;;;;;;;17.35;9.93;;;1.20;99.90;;;;;;5058109;28;20024;-84
2022/12/05 05:56:11;;;;;;;14.23;8.90;;;1.20;99.90;;;;;;5058957;28;20129;-81
2022/12/05 05:58:38;;;;;;;15.23;9.90;;;1.20;99.90;;;;;;5061690;28;20048;-82
2022/12/05 06:01:08;;;;;;;15.85;10.10;;;1.20;99.90;;;;;;5059697;28;20021;-82
2022/12/05 06:03:34;;;;;;;15.15;9.27;;;1.20;99.90;;;;;;5062268;28;20365;-82
2022/12/05 06:06:03;;;;;;;13.50;8.60;;;1.20;99.90;;;;;;5060682;28;20021;-81
2022/12/05 06:08:30;;;;;;;16.35;8.80;;;1.30;99.90;;;;;;5056429;28;20043;-82
2022/12/05 06:10:55;;;;;;;13.52;8.90;;;1.20;99.90;;;;;;5059613;28;20020;-81
2022/12/05 06:13:21;;;;;;;15.85;8.85;;;1.20;99.90;;;;;;5060636;28;20346;-82
2022/12/05 06:15:47;;;;;;;13.63;8.90;;;1.30;99.90;;;;;;5059758;28;20028;-82
2022/12/05 06:18:12;;;;;;;16.00;9.35;;;1.20;99.90;;;;;;5054079;28;20075;-82
2022/12/05 06:20:38;;;;;;;16.20;9.73;;;1.20;99.90;;;;;;5055243;28;20495;-81
2022/12/05 06:23:04;;;;;;;16.90;9.65;;;1.20;99.90;;;;;;5061308;28;20024;-82
2022/12/05 06:25:29;;;;;;;12.18;8.30;;;1.20;99.90;;;;;;5057717;28;20013;-81
2022/12/05 06:27:55;;;;;;;17.52;10.23;;;1.30;99.90;;;;;;5061759;28;20044;-80
2022/12/05 06:30:21;;;;;;;16.05;8.98;;;1.30;99.90;;;;;;5060415;28;20036;-82
2022/12/05 06:32:46;;;;;;;14.38;9.02;;;1.20;99.90;;;;;;5052812;28;20131;-82
2022/12/05 06:35:15;;;;;;;13.30;8.63;;;1.20;99.90;;;;;;5062021;28;20020;-81
2022/12/05 06:37:47;;;;;;;16.50;9.13;;;1.20;99.90;;;;;;5061795;28;20025;-82
2022/12/05 06:40:13;;;;;;;14.32;9.07;;;1.20;99.90;;;;;;5054110;28;20115;-82
2022/12/05 06:42:38;;;;;;;17.30;9.75;;;1.30;99.90;;;;;;5062351;28;20442;-82
2022/12/05 06:45:05;;;;;;;13.75;9.10;;;1.30;99.90;;;;;;5063072;28;20121;-81
2022/12/05 06:47:31;;;;;;;14.13;8.85;;;1.30;99.90;;;;;;5060096;28;20098;-82
2022/12/05 06:49:57;;;;;;;16.27;8.60;;;1.20;99.90;;;;;;5058832;28;20028;-82
2022/12/05 06:52:22;;;;;;;16.60;8.23;;;1.20;99.90;;;;;;5061886;28;20528;-82
2022/12/05 06:54:48;;;;;;;13.98;8.57;;;1.20;99.90;;;;;;5059162;28;20020;-82
2022/12/05 06:57:14;;;;;;;11.93;8.07;;;1.20;99.90;;;;;;5056243;28;20439;-82
2022/12/05 06:59:39;;;;;;;14.65;9.25;;;1.20;99.90;;;;;;5061512;28;20397;-81
2022/12/05 07:02:07;;;;;;;12.27;8.82;;;1.20;99.90;;;;;;5055176;28;20036;-82
2022/12/05 07:04:33;;;;;;;13.77;8.73;;;1.30;99.90;;;;;;5055014;28;20037;-81
2022/12/05 07:07:00;;;;;;;16.30;9.40;;;1.20;99.90;;;;;;5064178;28;20040;-82
2022/12/05 07:09:47;;;;;;;24.95;13.70;;;1.20;99.90;;;;;;5057969;28;20020;-82
2022/12/05 07:12:14;;;;;;;;;;;1.30;99.90;;;;;;5062219;28;20473;-82
2022/12/05 07:14:41;;;;;;;26.98;14.73;;;1.30;99.90;;;;;;5065187;28;19904;-82
2022/12/05 07:17:09;;;;;;;24.33;14.00;;;1.30;99.90;;;;;;5058758;28;20036;-82
2022/12/05 07:19:35;;;;;;;18.33;11.57;;;1.20;99.90;;;;;;5061005;28;20028;-82
2022/12/05 07:22:01;;;;;;;18.13;11.70;;;1.20;99.90;;;;;;5061801;28;20017;-82
2022/12/05 07:24:27;;;;;;;15.60;10.82;;;1.20;99.90;;;;;;5056473;28;20028;-82
2022/12/05 07:26:52;;;;;;;15.38;9.63;;;1.20;99.90;;;;;;5061286;28;20476;-82
2022/12/05 07:29:18;;;;;;;19.77;10.75;;;1.20;99.90;;;;;;5063147;28;20123;-82
2022/12/05 07:31:44;;;;;;;15.68;9.18;;;1.20;99.90;;;;;;5054636;28;20021;-82
2022/12/05 07:34:09;;;;;;;17.92;10.27;;;1.20;99.90;;;;;;5062771;28;20032;-82
2022/12/05 07:36:35;;;;;;;18.33;10.68;;;1.20;99.90;;;;;;5061030;28;20025;-82
2022/12/05 07:39:01;;;;;;;16.02;10.23;;;1.20;99.90;;;;;;5061191;28;20028;-82
2022/12/05 07:41:30;;;;;;;15.98;10.77;;;1.20;99.90;;;;;;5064191;28;20016;-83
2022/12/05 07:43:57;;;;;;;17.38;12.05;;;1.20;99.90;;;;;;5059173;28;20037;-82
2022/12/05 07:46:24;;;;;;;15.63;10.88;;;1.20;99.90;;;;;;5056369;28;20028;-82
2022/12/05 07:48:50;;;;;;;15.23;10.38;;;1.20;99.90;;;;;;5052096;28;20044;-82
2022/12/05 07:51:18;;;;;;;24.58;13.57;;;1.30;99.90;;;;;;5055904;28;20422;-82
2022/12/05 07:53:43;;;;;;;20.38;12.55;;;1.20;99.90;;;;;;5061553;28;20025;-82
2022/12/05 07:56:13;;;;;;;17.13;11.65;;;1.20;99.90;;;;;;5058708;28;20107;-82
2022/12/05 07:58:39;;;;;;;16.23;10.55;;;1.30;99.90;;;;;;5061311;28;20449;-83
2022/12/05 08:01:14;;;;;;;14.93;10.93;;;1.30;99.90;;;;;;5058498;28;20024;-82
2022/12/05 08:03:40;;;;;;;13.35;8.30;;;1.30;99.90;;;;;;5062672;28;20028;-82
2022/12/05 08:06:09;;;;;;;16.33;10.65;;;1.30;99.90;;;;;;5066086;28;20025;-82
2022/12/05 08:08:35;;;;;;;14.77;10.30;;;1.30;99.90;;;;;;5065899;28;20033;-82
2022/12/05 08:11:16;;;;;;;18.58;11.38;;;1.30;99.90;;;;;;5069263;28;20016;-83
2022/12/05 08:13:42;;;;;;;28.83;17.95;;;1.30;99.90;;;;;;5060645;28;20027;-83
2022/12/05 08:16:11;;;;;;;26.23;17.83;;;1.30;99.90;;;;;;5065887;28;20021;-82
2022/12/05 08:18:37;;;;;;;23.27;14.77;;;1.30;99.90;;;;;;5064744;28;20472;-83
2022/12/05 08:21:08;;;;;;;18.98;13.13;;;1.20;99.90;;;;;;5061004;28;20021;-82
2022/12/05 08:23:35;;;;;;;38.67;24.83;;;1.30;99.90;;;;;;5056500;28;20040;-82
2022/12/05 08:26:03;;;;;;;33.70;22.50;;;1.30;99.90;;;;;;5055449;28;20039;-82
2022/12/05 08:28:29;;;;;;;29.95;19.95;;;1.30;99.90;;;;;;5061269;28;20060;-82
2022/12/05 08:30:55;;;;;;;24.17;16.02;;;1.30;99.90;;;;;;5060823;28;20021;-83
2022/12/05 08:33:21;;;;;;;22.73;14.15;;;1.20;99.90;;;;;;5059555;28;20099;-82
2022/12/05 08:35:46;;;;;;;26.35;16.80;;;1.30;99.90;;;;;;5055099;28;20135;-82
2022/12/05 08:38:12;;;;;;;24.15;14.50;;;1.30;99.90;;;;;;5059946;28;20013;-82
2022/12/05 08:40:37;;;;;;;17.92;12.02;;;1.30;99.90;;;;;;5066984;28;20367;-82
2022/12/05 08:43:03;;;;;;;21.92;13.10;;;1.30;99.90;;;;;;5070429;28;20029;-82
2022/12/05 08:45:29;;;;;;;16.30;11.75;;;1.30;99.90;;;;;;5062847;28;20118;-82
2022/12/05 08:47:54;;;;;;;38.65;20.55;;;1.30;99.90;;;;;;5069117;28;20041;-82
2022/12/05 08:50:20;;;;;;;25.23;14.80;;;1.30;99.90;;;;;;5070512;28;20017;-82
2022/12/05 08:52:45;;;;;;;26.83;15.75;;;1.30;99.90;;;;;;5059089;28;20028;-82
2022/12/05 08:55:11;;;;;;;23.80;16.38;;;1.30;99.90;;;;;;5056801;28;20027;-82
2022/12/05 08:57:37;;;;;;;23.75;16.40;;;1.30;99.90;;;;;;5060794;28;20028;-82
2022/12/05 09:00:04;;;;;;;20.83;14.95;;;1.30;99.90;;;;;;5055183;28;20068;-82
2022/12/05 09:02:30;;;;;;;18.75;12.57;;;1.30;99.90;;;;;;5059563;28;20024;-82
2022/12/05 09:04:56;;;;;;;17.83;11.98;;;1.30;99.90;;;;;;5060955;28;20115;-81
2022/12/05 09:07:21;;;;;;;15.90;11.57;;;1.30;99.90;;;;;;5057402;28;20045;-82
2022/12/05 09:09:47;;;;;;;20.73;14.07;;;1.30;99.90;;;;;;5060778;28;21242;-82
2022/12/05 09:12:13;;;;;;;21.25;13.07;;;1.30;99.90;;;;;;5060002;28;20025;-82
2022/12/05 09:14:39;;;;;;;16.75;11.43;;;1.30;99.90;;;;;;5059002;28;20473;-81
2022/12/05 09:17:05;;;;;;;23.85;14.93;;;1.30;99.90;;;;;;5060864;28;20020;-82
2022/12/05 09:19:31;;;;;;;20.73;12.82;;;1.30;99.90;;;;;;5058678;28;20024;-81
2022/12/05 09:21:57;;;;;;;19.52;12.63;;;1.30;99.90;;;;;;5067143;28;20020;-82
2022/12/05 09:24:23;;;;;;;15.18;10.95;;;1.30;99.90;;;;;;5057598;28;20627;-82
2022/12/05 09:26:49;;;;;;;17.73;12.10;;;1.30;99.90;;;;;;5056614;28;20020;-82
2022/12/05 09:29:15;;;;;;;17.48;11.50;;;1.40;99.90;;;;;;5056135;28;20038;-82
2022/12/05 09:31:41;;;;;;;16.48;11.65;;;1.40;99.90;;;;;;5064085;28;20036;-82
2022/12/05 09:34:08;;;;;;;20.48;13.60;;;1.40;99.90;;;;;;5051938;28;20399;-82
2022/12/05 09:36:33;;;;;;;21.75;13.25;;;1.40;99.90;;;;;;5058541;28;20032;-82
2022/12/05 09:39:03;;;;;;;26.15;15.35;;;1.40;99.90;;;;;;5060269;28;20687;-82
2022/12/05 09:45:04;;;;;;;62.55;35.00;;;1.40;99.90;;;;;;5060437;28;20051;-82
2022/12/05 09:47:30;;;;;;;33.92;21.45;;;1.40;99.90;;;;;;5063414;28;20111;-82
2022/12/05 09:50:12;;;;;;;32.83;19.08;;;1.40;99.90;;;;;;5065598;28;20168;-82
2022/12/05 09:52:49;;;;;;;32.63;16.50;;;1.40;99.90;;;;;;5053123;28;20040;-82
2022/12/05 09:55:19;;;;;;;22.45;14.13;;;1.40;99.90;;;;;;5053077;28;20013;-82
2022/12/05 09:57:50;;;;;;;24.77;15.77;;;1.40;99.90;;;;;;5054709;28;20361;-82
2022/12/05 10:00:16;;;;;;;20.70;13.77;;;1.40;99.90;;;;;;5011354;28;1206290;-81
2022/12/05 10:03:05;;;;;;;18.65;13.10;;;1.40;99.90;;;;;;5059928;28;20025;-82
2022/12/05 10:05:46;;;;;;;20.67;13.27;;;1.50;99.90;;;;;;5060618;28;20115;-82
2022/12/05 10:08:11;;;;;;;18.15;12.05;;;1.50;99.90;;;;;;5064922;28;20421;-82
2022/12/05 10:10:40;;;;;;;18.58;12.98;;;1.50;99.90;;;;;;5056903;28;20028;-82
2022/12/05 10:13:23;;;;;;;20.17;14.23;;;1.50;99.90;;;;;;5052643;28;20017;-82
2022/12/05 10:15:55;;;;;;;22.58;13.75;;;1.60;99.90;;;;;;5056418;28;20016;-81
2022/12/05 10:18:39;;;;;;;20.50;13.68;;;1.50;99.90;;;;;;5063513;28;20414;-81
2022/12/05 10:21:11;;;;;;;25.05;15.35;;;1.60;99.90;;;;;;5066501;28;20099;-81
2022/12/05 10:23:55;;;;;;;24.92;15.75;;;1.50;99.90;;;;;;5065898;28;20495;-81
2022/12/05 10:26:25;;;;;;;20.55;14.48;;;1.60;99.90;;;;;;5058250;28;20070;-82
2022/12/05 10:29:21;;;;;;;22.23;13.65;;;1.60;99.90;;;;;;5063615;28;20469;-82
2022/12/05 10:31:48;;;;;;;18.73;13.25;;;1.50;99.90;;;;;;5061371;28;20028;-81
2022/12/05 10:34:30;;;;;;;20.95;13.40;;;1.60;99.90;;;;;;5055553;28;20681;-82
2022/12/05 10:37:18;;;;;;;20.80;12.82;;;1.60;99.90;;;;;;5062390;28;20115;-82
2022/12/05 10:39:45;;;;;;;19.13;13.48;;;1.60;99.90;;;;;;5062465;28;20024;-82
2022/12/05 10:42:37;;;;;;;16.55;11.90;;;1.70;99.90;;;;;;5062809;28;20029;-82
2022/12/05 10:45:07;;;;;;;16.85;11.95;;;1.60;99.90;;;;;;5056822;28;20033;-82
2022/12/05 10:47:34;;;;;;;18.52;13.13;;;1.60;99.90;;;;;;5062286;28;20454;-81
2022/12/05 10:50:05;;;;;;;18.35;12.95;;;1.60;99.90;;;;;;5062594;28;20036;-81
2022/12/05 10:52:31;;;;;;;20.38;13.18;;;1.70;99.90;;;;;;5062703;28;20025;-82
2022/12/05 10:55:02;;;;;;;20.45;11.77;;;1.60;99.90;;;;;;5061395;28;20028;-82
2022/12/05 10:57:29;;;;;;;16.63;11.57;;;1.60;99.90;;;;;;5057981;28;20081;-81
2022/12/05 10:59:55;;;;;;;15.25;10.63;;;1.60;99.90;;;;;;5063939;28;20175;-82
2022/12/05 11:02:26;;;;;;;13.93;10.43;;;1.60;99.90;;;;;;5062374;28;20175;-82
2022/12/05 11:04:53;;;;;;;16.95;11.27;;;1.60;99.90;;;;;;5060730;28;20025;-82
2022/12/05 11:07:44;;;;;;;17.38;10.48;;;1.60;99.90;;;;;;5055735;28;20029;-82
2022/12/05 11:10:22;;;;;;;18.73;12.75;;;1.60;99.90;;;;;;5055933;28;20409;-82
2022/12/05 11:12:48;;;;;;;17.63;12.52;;;1.70;99.90;;;;;;5061341;28;20034;-82
2022/12/05 11:15:18;;;;;;;21.02;14.40;;;1.70;99.90;;;;;;5058672;28;20307;-82
2022/12/05 11:17:45;;;;;;;22.08;13.93;;;1.70;99.90;;;;;;5064919;28;20323;-81
2022/12/05 11:20:16;;;;;;;20.88;13.98;;;1.70;99.90;;;;;;5060547;28;20463;-82
2022/12/05 11:22:43;;;;;;;20.65;14.13;;;1.70;99.90;;;;;;5058315;28;20347;-82
2022/12/05 11:25:27;;;;;;;26.40;18.25;;;1.70;99.90;;;;;;5052825;28;20027;-81
2022/12/05 11:28:19;;;;;;;24.52;16.00;;;1.70;99.90;;;;;;5056860;28;20093;-82
2022/12/05 11:31:23;;;;;;;29.80;17.63;;;1.70;99.90;;;;;;5055321;28;20133;-82
2022/12/05 11:34:16;;;;;;;22.67;15.23;;;1.70;99.90;;;;;;5057100;28;20115;-82
2022/12/05 11:36:53;;;;;;;32.05;19.80;;;1.70;99.90;;;;;;5054264;28;20024;-82
2022/12/05 11:39:19;;;;;;;27.52;17.92;;;1.70;99.90;;;;;;5061385;28;20060;-82
2022/12/05 11:41:55;;;;;;;29.02;16.75;;;1.80;99.90;;;;;;5057103;28;20031;-82
2022/12/05 11:44:41;;;;;;;29.38;18.83;;;1.70;99.90;;;;;;5058251;28;20074;-82
2022/12/05 11:47:25;;;;;;;;;;;1.80;99.90;;;;;;5057061;28;20028;-83
2022/12/05 11:50:17;;;;;;;33.70;19.15;;;1.70;99.90;;;;;;5051558;28;20024;-83
2022/12/05 11:53:07;;;;;;;28.52;18.98;;;1.70;99.90;;;;;;5054297;28;20025;-83
2022/12/05 11:55:33;;;;;;;34.58;20.10;;;1.80;99.90;;;;;;5060274;28;20365;-83
2022/12/05 11:58:35;;;;;;;35.47;21.92;;;1.70;99.90;;;;;;5059152;28;20527;-82
2022/12/05 12:01:17;;;;;;;34.55;20.65;;;1.80;99.90;;;;;;5056400;28;20044;-82
2022/12/05 12:04:11;;;;;;;32.20;19.85;;;1.80;99.90;;;;;;5059843;28;20315;-83
2022/12/05 12:06:52;;;;;;;32.15;20.23;;;1.70;99.90;;;;;;5060410;28;20020;-83
2022/12/05 12:09:45;;;;;;;35.63;21.50;;;1.70;99.90;;;;;;5060740;28;20024;-83
2022/12/05 12:12:33;;;;;;;35.05;22.13;;;1.70;99.90;;;;;;5055775;28;20035;-83
2022/12/05 12:15:26;;;;;;;39.55;22.50;;;1.70;99.90;;;;;;5048447;28;20017;-82
2022/12/05 12:18:30;;;;;;;40.00;22.08;;;1.70;99.90;;;;;;5057126;28;20106;-83
2022/12/05 12:21:14;;;;;;;36.72;22.83;;;1.70;99.90;;;;;;5039441;28;20033;-83
2022/12/05 12:24:18;;;;;;;42.05;23.80;;;1.80;99.90;;;;;;5052021;28;20020;-83
2022/12/05 12:26:54;;;;;;;38.00;22.90;;;1.70;99.90;;;;;;5058166;28;20054;-83
2022/12/05 12:29:20;;;;;;;41.30;25.27;;;1.80;99.90;;;;;;5058855;28;20487;-83
2022/12/05 12:32:21;;;;;;;55.97;28.73;;;1.80;99.90;;;;;;5058048;28;20112;-83
2022/12/05 12:35:26;;;;;;;41.65;22.92;;;1.80;99.90;;;;;;5050317;28;20421;-83
2022/12/05 12:38:18;;;;;;;32.78;20.58;;;1.80;99.90;;;;;;5058510;28;20404;-83
2022/12/05 12:40:54;;;;;;;46.10;23.85;;;1.70;99.90;;;;;;5058691;28;20048;-84
2022/12/05 12:43:47;;;;;;;50.67;25.02;;;1.70;99.90;;;;;;5054038;28;20021;-83
2022/12/05 12:46:37;;;;;;;40.60;24.70;;;1.70;99.90;;;;;;5055306;28;20031;-83
2022/12/05 12:49:05;;;;;;;36.30;21.75;;;1.70;99.90;;;;;;5055001;28;20029;-83
2022/12/05 12:51:32;;;;;;;39.75;24.13;;;1.70;99.90;;;;;;5064558;28;20016;-84
2022/12/05 12:54:01;;;;;;;43.28;25.02;;;1.70;99.90;;;;;;5061742;28;20051;-83
2022/12/05 12:56:59;;;;;;;33.90;21.13;;;1.70;99.90;;;;;;5062292;28;20343;-83
2022/12/05 13:00:00;;;;;;;24.95;15.48;;;1.70;99.90;;;;;;5056344;28;20068;-84
2022/12/05 13:02:46;;;;;;;25.35;16.63;;;1.70;99.90;;;;;;5065836;28;20109;-83
2022/12/05 13:05:27;;;;;;;22.33;14.95;;;1.70;99.90;;;;;;5058440;28;20040;-84
2022/12/05 13:08:21;;;;;;;20.95;13.60;;;1.60;99.90;;;;;;5054738;28;20044;-83
2022/12/05 13:10:47;;;;;;;24.20;15.63;;;1.60;99.90;;;;;;5047190;28;20043;-83